sensor_id;sensor_type;location;lat;lon;timestamp;P1;durP1;ratioP1;P2;durP2;ratioP2
64242;SDS011;50573;51.512;5.386;2023-08-31T00:01:50;8.55;;;5.85;;
64242;SDS011;50573;51.512;5.386;2023-08-31T00:11:54;15.57;;;7.30;;
64242;SDS011;50573;51.512;5.386;2023-08-31T00:21:59;17.65;;;8.20;;
64242;SDS011;50573;51.512;5.386;2023-08-31T00:32:02;13.17;;;9.20;;
64242;SDS011;50573;51.512;5.386;2023-08-31T00:42:07;13.00;;;9.43;;
64242;SDS011;50573;51.512;5.386;2023-08-31T00:52:10;13.80;;;9.70;;
64242;SDS011;50573;51.512;5.386;2023-08-31T01:02:16;15.80;;;9.60;;
64242;SDS011;50573;51.512;5.386;2023-08-31T01:12:22;14.20;;;9.35;;
64242;SDS011;50573;51.512;5.386;2023-08-31T01:22:36;19.00;;;9.85;;
64242;SDS011;50573;51.512;5.386;2023-08-31T01:32:44;15.68;;;9.80;;
64242;SDS011;50573;51.512;5.386;2023-08-31T01:42:48;17.88;;;11.32;;
64242;SDS011;50573;51.512;5.386;2023-08-31T01:52:54;17.53;;;11.53;;
64242;SDS011;50573;51.512;5.386;2023-08-31T02:13:03;18.63;;;12.68;;
64242;SDS011;50573;51.512;5.386;2023-08-31T02:23:06;20.38;;;12.75;;
64242;SDS011;50573;51.512;5.386;2023-08-31T02:33:12;20.60;;;12.65;;
64242;SDS011;50573;51.512;5.386;2023-08-31T02:43:16;20.73;;;13.73;;
64242;SDS011;50573;51.512;5.386;2023-08-31T02:53:20;32.75;;;20.05;;
64242;SDS011;50573;51.512;5.386;2023-08-31T03:03:23;38.93;;;25.83;;
64242;SDS011;50573;51.512;5.386;2023-08-31T03:13:28;37.85;;;24.98;;
64242;SDS011;50573;51.512;5.386;2023-08-31T03:23:32;35.28;;;23.02;;
64242;SDS011;50573;51.512;5.386;2023-08-31T03:33:37;37.33;;;25.08;;
64242;SDS011;50573;51.512;5.386;2023-08-31T03:43:40;49.33;;;29.13;;
64242;SDS011;50573;51.512;5.386;2023-08-31T03:53:44;55.33;;;33.15;;
64242;SDS011;50573;51.512;5.386;2023-08-31T04:03:47;56.60;;;32.97;;
64242;SDS011;50573;51.512;5.386;2023-08-31T04:13:52;51.13;;;31.10;;
64242;SDS011;50573;51.512;5.386;2023-08-31T04:23:55;43.87;;;25.67;;
64242;SDS011;50573;51.512;5.386;2023-08-31T04:34:02;34.00;;;23.20;;
64242;SDS011;50573;51.512;5.386;2023-08-31T04:44:05;36.35;;;22.77;;
64242;SDS011;50573;51.512;5.386;2023-08-31T04:54:10;29.77;;;19.83;;
64242;SDS011;50573;51.512;5.386;2023-08-31T05:04:15;30.88;;;17.58;;
64242;SDS011;50573;51.512;5.386;2023-08-31T05:14:19;18.00;;;14.43;;
64242;SDS011;50573;51.512;5.386;2023-08-31T05:24:22;19.80;;;13.70;;
64242;SDS011;50573;51.512;5.386;2023-08-31T05:34:27;20.33;;;12.70;;
64242;SDS011;50573;51.512;5.386;2023-08-31T05:44:30;19.08;;;12.25;;
64242;SDS011;50573;51.512;5.386;2023-08-31T05:54:35;18.77;;;11.45;;
64242;SDS011;50573;51.512;5.386;2023-08-31T06:04:38;18.07;;;11.23;;
64242;SDS011;50573;51.512;5.386;2023-08-31T06:14:42;16.92;;;10.90;;
64242;SDS011;50573;51.512;5.386;2023-08-31T06:24:45;15.27;;;9.80;;
64242;SDS011;50573;51.512;5.386;2023-08-31T06:34:50;20.00;;;10.93;;
64242;SDS011;50573;51.512;5.386;2023-08-31T06:44:54;13.23;;;9.23;;
64242;SDS011;50573;51.512;5.386;2023-08-31T06:55:00;16.77;;;9.60;;
64242;SDS011;50573;51.512;5.386;2023-08-31T07:05:05;15.05;;;8.77;;
64242;SDS011;50573;51.512;5.386;2023-08-31T07:15:11;19.33;;;9.20;;
64242;SDS011;50573;51.512;5.386;2023-08-31T07:25:14;13.63;;;8.52;;
64242;SDS011;50573;51.512;5.386;2023-08-31T07:35:21;18.13;;;9.45;;
64242;SDS011;50573;51.512;5.386;2023-08-31T07:45:28;13.35;;;8.35;;
64242;SDS011;50573;51.512;5.386;2023-08-31T07:55:34;11.52;;;7.70;;
64242;SDS011;50573;51.512;5.386;2023-08-31T08:05:46;12.33;;;7.20;;
64242;SDS011;50573;51.512;5.386;2023-08-31T08:15:52;17.35;;;7.82;;
64242;SDS011;50573;51.512;5.386;2023-08-31T08:26:02;17.42;;;7.90;;
64242;SDS011;50573;51.512;5.386;2023-08-31T08:36:09;13.23;;;7.13;;
64242;SDS011;50573;51.512;5.386;2023-08-31T08:46:13;17.27;;;6.93;;
64242;SDS011;50573;51.512;5.386;2023-08-31T09:06:22;10.83;;;6.20;;
64242;SDS011;50573;51.512;5.386;2023-08-31T09:16:27;15.13;;;6.80;;
64242;SDS011;50573;51.512;5.386;2023-08-31T09:26:37;12.90;;;5.93;;
64242;SDS011;50573;51.512;5.386;2023-08-31T09:36:42;7.47;;;4.93;;
64242;SDS011;50573;51.512;5.386;2023-08-31T09:46:46;9.55;;;5.65;;
64242;SDS011;50573;51.512;5.386;2023-08-31T09:57:00;11.55;;;4.57;;
64242;SDS011;50573;51.512;5.386;2023-08-31T10:07:08;8.82;;;4.80;;
64242;SDS011;50573;51.512;5.386;2023-08-31T10:17:17;6.85;;;3.78;;
64242;SDS011;50573;51.512;5.386;2023-08-31T10:27:20;8.20;;;3.22;;
64242;SDS011;50573;51.512;5.386;2023-08-31T10:37:26;9.30;;;4.13;;
64242;SDS011;50573;51.512;5.386;2023-08-31T10:47:36;10.35;;;3.75;;
64242;SDS011;50573;51.512;5.386;2023-08-31T10:57:45;9.80;;;3.40;;
64242;SDS011;50573;51.512;5.386;2023-08-31T11:07:50;8.32;;;2.70;;
64242;SDS011;50573;51.512;5.386;2023-08-31T11:17:57;8.75;;;3.00;;
64242;SDS011;50573;51.512;5.386;2023-08-31T11:28:01;5.88;;;3.20;;
64242;SDS011;50573;51.512;5.386;2023-08-31T11:38:15;5.30;;;2.58;;
64242;SDS011;50573;51.512;5.386;2023-08-31T11:48:20;7.07;;;2.60;;
64242;SDS011;50573;51.512;5.386;2023-08-31T11:58:31;7.90;;;2.78;;
64242;SDS011;50573;51.512;5.386;2023-08-31T12:08:36;10.48;;;2.63;;
64242;SDS011;50573;51.512;5.386;2023-08-31T12:18:46;6.85;;;4.03;;
64242;SDS011;50573;51.512;5.386;2023-08-31T12:29:07;14.25;;;6.05;;
64242;SDS011;50573;51.512;5.386;2023-08-31T12:39:18;11.40;;;5.65;;
64242;SDS011;50573;51.512;5.386;2023-08-31T12:49:24;11.35;;;7.18;;
64242;SDS011;50573;51.512;5.386;2023-08-31T12:59:29;14.80;;;8.93;;
64242;SDS011;50573;51.512;5.386;2023-08-31T13:09:41;11.77;;;7.97;;
64242;SDS011;50573;51.512;5.386;2023-08-31T13:19:48;14.60;;;9.27;;
64242;SDS011;50573;51.512;5.386;2023-08-31T13:29:51;14.45;;;8.65;;
64242;SDS011;50573;51.512;5.386;2023-08-31T13:40:02;13.98;;;9.00;;
64242;SDS011;50573;51.512;5.386;2023-08-31T13:50:07;12.65;;;8.98;;
64242;SDS011;50573;51.512;5.386;2023-08-31T14:00:16;11.68;;;7.25;;
64242;SDS011;50573;51.512;5.386;2023-08-31T14:10:24;12.45;;;7.40;;
64242;SDS011;50573;51.512;5.386;2023-08-31T14:20:29;15.65;;;10.65;;
64242;SDS011;50573;51.512;5.386;2023-08-31T14:40:50;16.08;;;9.70;;
64242;SDS011;50573;51.512;5.386;2023-08-31T14:50:54;18.35;;;9.05;;
64242;SDS011;50573;51.512;5.386;2023-08-31T15:11:40;14.23;;;7.47;;
64242;SDS011;50573;51.512;5.386;2023-08-31T15:21:45;15.45;;;8.25;;
64242;SDS011;50573;51.512;5.386;2023-08-31T15:31:49;11.60;;;8.15;;
64242;SDS011;50573;51.512;5.386;2023-08-31T15:42:00;18.15;;;8.80;;
64242;SDS011;50573;51.512;5.386;2023-08-31T15:52:04;11.85;;;7.80;;
64242;SDS011;50573;51.512;5.386;2023-08-31T16:02:20;13.02;;;7.70;;
64242;SDS011;50573;51.512;5.386;2023-08-31T16:12:32;10.10;;;5.60;;
64242;SDS011;50573;51.512;5.386;2023-08-31T16:22:39;12.32;;;5.70;;
64242;SDS011;50573;51.512;5.386;2023-08-31T16:32:43;14.57;;;6.03;;
64242;SDS011;50573;51.512;5.386;2023-08-31T16:52:51;19.27;;;6.68;;
64242;SDS011;50573;51.512;5.386;2023-08-31T17:02:56;14.97;;;6.53;;
64242;SDS011;50573;51.512;5.386;2023-08-31T17:13:01;10.80;;;7.15;;
64242;SDS011;50573;51.512;5.386;2023-08-31T17:23:08;11.93;;;6.53;;
64242;SDS011;50573;51.512;5.386;2023-08-31T17:33:14;10.32;;;6.80;;
64242;SDS011;50573;51.512;5.386;2023-08-31T17:43:24;8.07;;;6.22;;
64242;SDS011;50573;51.512;5.386;2023-08-31T17:53:28;14.52;;;6.47;;
64242;SDS011;50573;51.512;5.386;2023-08-31T18:03:35;12.13;;;5.93;;
64242;SDS011;50573;51.512;5.386;2023-08-31T18:13:45;12.48;;;6.05;;
64242;SDS011;50573;51.512;5.386;2023-08-31T18:23:54;12.35;;;6.22;;
64242;SDS011;50573;51.512;5.386;2023-08-31T18:33:57;13.02;;;7.65;;
64242;SDS011;50573;51.512;5.386;2023-08-31T18:44:01;12.95;;;6.68;;
64242;SDS011;50573;51.512;5.386;2023-08-31T18:54:05;20.77;;;12.38;;
64242;SDS011;50573;51.512;5.386;2023-08-31T19:04:09;19.67;;;7.80;;
64242;SDS011;50573;51.512;5.386;2023-08-31T19:24:17;14.85;;;4.72;;
64242;SDS011;50573;51.512;5.386;2023-08-31T19:44:24;15.63;;;4.75;;
64242;SDS011;50573;51.512;5.386;2023-08-31T19:54:27;14.57;;;4.78;;
64242;SDS011;50573;51.512;5.386;2023-08-31T20:04:32;17.20;;;5.70;;
64242;SDS011;50573;51.512;5.386;2023-08-31T20:14:36;18.70;;;5.65;;
64242;SDS011;50573;51.512;5.386;2023-08-31T20:24:40;16.25;;;4.78;;
64242;SDS011;50573;51.512;5.386;2023-08-31T20:44:49;11.93;;;4.90;;
64242;SDS011;50573;51.512;5.386;2023-08-31T21:04:57;20.70;;;5.97;;
64242;SDS011;50573;51.512;5.386;2023-08-31T21:15:00;16.60;;;5.13;;
64242;SDS011;50573;51.512;5.386;2023-08-31T21:25:06;15.07;;;5.43;;
64242;SDS011;50573;51.512;5.386;2023-08-31T21:35:09;12.50;;;5.47;;
64242;SDS011;50573;51.512;5.386;2023-08-31T21:45:14;14.25;;;5.60;;
64242;SDS011;50573;51.512;5.386;2023-08-31T22:05:22;15.68;;;6.07;;
64242;SDS011;50573;51.512;5.386;2023-08-31T22:15:26;15.48;;;5.97;;
64242;SDS011;50573;51.512;5.386;2023-08-31T22:25:31;15.23;;;6.20;;
64242;SDS011;50573;51.512;5.386;2023-08-31T22:35:34;16.10;;;6.35;;
64242;SDS011;50573;51.512;5.386;2023-08-31T22:45:39;15.48;;;6.45;;
64242;SDS011;50573;51.512;5.386;2023-08-31T22:55:42;17.13;;;6.55;;
64242;SDS011;50573;51.512;5.386;2023-08-31T23:05:47;20.50;;;6.97;;
64242;SDS011;50573;51.512;5.386;2023-08-31T23:15:50;16.50;;;7.45;;
64242;SDS011;50573;51.512;5.386;2023-08-31T23:25:54;14.63;;;6.97;;
64242;SDS011;50573;51.512;5.386;2023-08-31T23:35:57;16.98;;;7.40;;
64242;SDS011;50573;51.512;5.386;2023-08-31T23:46:02;22.13;;;7.45;;
64242;SDS011;50573;51.512;5.386;2023-08-31T23:56:05;14.85;;;7.40;;
